createdAt,value
2022-08-11T00:00:05.558Z,1022.09
2022-08-11T00:05:03.250Z,1022.22
2022-08-11T00:10:04.298Z,1022.24
2022-08-11T00:15:03.200Z,1022.27
2022-08-11T00:20:11.326Z,1022.36
2022-08-11T00:25:03.185Z,1022.44
2022-08-11T00:30:04.897Z,1022.42
2022-08-11T00:35:50.657Z,1022.38
2022-08-11T00:40:04.433Z,1022.31
2022-08-11T00:45:03.503Z,1022.16
2022-08-11T00:50:04.239Z,1022.31
2022-08-11T00:55:03.204Z,1022.41
2022-08-11T01:00:04.731Z,1022.48
2022-08-11T01:05:03.257Z,1022.51
2022-08-11T01:10:07.263Z,1022.47
2022-08-11T01:15:03.451Z,1022.53
2022-08-11T01:20:39.799Z,1022.7
2022-08-11T01:25:03.190Z,1022.68
2022-08-11T01:30:04.920Z,1022.75
2022-08-11T01:35:03.314Z,1022.79
2022-08-11T01:40:04.465Z,1022.9
2022-08-11T01:45:03.425Z,1022.89
2022-08-11T01:50:07.490Z,1022.91
2022-08-11T01:55:03.200Z,1022.93
2022-08-11T02:00:10.683Z,1022.95
2022-08-11T02:05:03.275Z,1023.0
2022-08-11T02:10:04.376Z,1023.02
2022-08-11T02:15:04.815Z,1023.02
2022-08-11T02:20:04.231Z,1023.04
2022-08-11T02:25:03.253Z,1023.07
2022-08-11T02:30:05.252Z,1023.07
2022-08-11T02:35:03.271Z,1023.02
2022-08-11T02:40:04.315Z,1023.0
2022-08-11T02:45:03.086Z,1023.0
2022-08-11T02:50:07.068Z,1022.96
2022-08-11T02:55:03.215Z,1022.97
2022-08-11T03:00:04.666Z,1022.95
2022-08-11T03:05:03.227Z,1022.91
2022-08-11T03:10:04.334Z,1022.88
2022-08-11T03:15:03.303Z,1022.75
2022-08-11T03:20:04.297Z,1022.75
2022-08-11T03:25:03.141Z,1022.72
2022-08-11T03:30:05.411Z,1022.74
2022-08-11T03:35:03.238Z,1022.72
2022-08-11T03:40:04.226Z,1022.7
2022-08-11T03:45:03.382Z,1022.61
2022-08-11T03:50:04.206Z,1022.58
2022-08-11T03:55:03.215Z,1022.5
2022-08-11T04:00:04.881Z,1022.43
2022-08-11T04:05:03.181Z,1022.46
2022-08-11T04:10:04.739Z,1022.31
2022-08-11T04:15:03.276Z,1022.34
2022-08-11T04:20:06.747Z,1022.42
2022-08-11T04:25:03.197Z,1022.34
2022-08-11T04:30:05.348Z,1022.2
2022-08-11T04:35:03.261Z,1022.09
2022-08-11T04:40:04.115Z,1021.96
2022-08-11T04:45:03.320Z,1021.92
2022-08-11T04:50:04.184Z,1021.86
2022-08-11T04:55:03.401Z,1021.75
2022-08-11T05:00:06.043Z,1021.73
2022-08-11T05:05:03.158Z,1021.78
2022-08-11T05:10:04.081Z,1021.81
2022-08-11T05:15:03.293Z,1021.77
2022-08-11T05:20:04.328Z,1021.73
2022-08-11T05:25:03.117Z,1021.67
2022-08-11T05:30:05.263Z,1021.68
2022-08-11T05:35:03.170Z,1021.69
2022-08-11T05:40:04.167Z,1021.53
2022-08-11T05:45:03.245Z,1021.52
2022-08-11T05:50:04.158Z,1021.47
2022-08-11T05:55:03.959Z,1021.38
2022-08-11T06:00:05.213Z,1021.36
2022-08-11T06:05:03.237Z,1021.44
2022-08-11T06:10:05.362Z,1021.51
2022-08-11T06:15:03.257Z,1021.47
2022-08-11T06:20:07.128Z,1021.5
2022-08-11T06:25:03.077Z,1021.42
2022-08-11T06:30:05.121Z,1021.42
2022-08-11T06:35:03.144Z,1021.37
2022-08-11T06:40:04.263Z,1021.29
2022-08-11T06:45:04.929Z,1021.19
2022-08-11T06:50:04.143Z,1021.17
2022-08-11T06:55:03.349Z,1021.08
2022-08-11T07:00:04.572Z,1021.01
2022-08-11T07:05:03.414Z,1020.99
2022-08-11T07:10:04.228Z,1020.98
2022-08-11T07:15:03.268Z,1021.01
2022-08-11T07:20:04.124Z,1021.13
2022-08-11T07:25:03.626Z,1021.09
2022-08-11T07:30:04.734Z,1021.0
2022-08-11T07:35:03.326Z,1020.83
2022-08-11T07:40:04.266Z,1020.7
2022-08-11T07:45:03.299Z,1020.66
2022-08-11T07:50:04.107Z,1020.79
2022-08-11T07:55:04.332Z,1020.85
2022-08-11T08:00:05.138Z,1020.83
2022-08-11T08:05:03.409Z,1020.85
2022-08-11T08:10:04.217Z,1020.88
2022-08-11T08:15:03.224Z,1020.92
2022-08-11T08:20:04.318Z,1020.85
2022-08-11T08:25:03.287Z,1020.8
2022-08-11T08:30:04.440Z,1020.79
2022-08-11T08:35:03.134Z,1020.81
2022-08-11T08:40:04.460Z,1020.82
2022-08-11T08:45:03.255Z,1020.86
2022-08-11T08:50:04.134Z,1020.86
2022-08-11T08:55:03.264Z,1020.92
2022-08-11T09:00:05.172Z,1020.97
2022-08-11T09:05:03.366Z,1021.03
2022-08-11T09:10:04.233Z,1021.08
2022-08-11T09:15:03.203Z,1021.11
2022-08-11T09:20:04.265Z,1021.12
2022-08-11T09:25:03.377Z,1021.19
2022-08-11T09:30:05.325Z,1021.21
2022-08-11T09:35:03.393Z,1021.24
2022-08-11T09:40:04.258Z,1021.33
2022-08-11T09:45:03.182Z,1021.43
2022-08-11T09:50:04.294Z,1021.43
2022-08-11T09:55:03.250Z,1021.44
2022-08-11T10:00:09.654Z,1021.55
2022-08-11T10:05:03.345Z,1021.52
2022-08-11T10:10:04.244Z,1021.59
2022-08-11T10:15:03.210Z,1021.71
2022-08-11T10:20:05.861Z,1021.79
2022-08-11T10:25:03.329Z,1021.87
2022-08-11T10:30:04.597Z,1021.97
2022-08-11T10:35:03.341Z,1021.99
2022-08-11T10:40:04.215Z,1022.09
2022-08-11T10:45:03.136Z,1022.19
2022-08-11T10:50:05.321Z,1022.26
2022-08-11T10:55:03.590Z,1022.38
2022-08-11T11:00:05.736Z,1022.41
2022-08-11T11:05:03.359Z,1022.46
2022-08-11T11:10:04.186Z,1022.53
2022-08-11T11:15:03.139Z,1022.58
2022-08-11T11:20:04.304Z,1022.66
2022-08-11T11:25:03.239Z,1022.64
2022-08-11T11:30:04.361Z,1022.65
2022-08-11T11:35:03.338Z,1022.63
2022-08-11T11:40:04.162Z,1022.74
2022-08-11T11:45:03.184Z,1022.79
2022-08-11T11:50:04.218Z,1022.91
2022-08-11T11:55:03.261Z,1022.98
2022-08-11T12:00:05.121Z,1023.02
2022-08-11T12:05:03.351Z,1023.09
2022-08-11T12:10:04.200Z,1023.17
2022-08-11T12:15:03.187Z,1023.26
2022-08-11T12:20:04.322Z,1023.3
2022-08-11T12:25:03.213Z,1023.33
2022-08-11T12:30:04.503Z,1023.33
2022-08-11T12:35:03.304Z,1023.33
2022-08-11T12:40:13.307Z,1023.41
2022-08-11T12:45:03.244Z,1023.43
2022-08-11T12:50:04.330Z,1023.45
2022-08-11T12:55:03.213Z,1023.46
2022-08-11T13:00:04.738Z,1023.44
2022-08-11T13:05:03.282Z,1023.49
2022-08-11T13:10:04.213Z,1023.51
2022-08-11T13:15:03.198Z,1023.57
2022-08-11T13:20:04.283Z,1023.52
2022-08-11T13:25:03.207Z,1023.5
2022-08-11T13:30:06.168Z,1023.54
2022-08-11T13:35:03.298Z,1023.55
2022-08-11T13:40:04.154Z,1023.49
2022-08-11T13:45:03.342Z,1023.47
2022-08-11T13:50:04.254Z,1023.44
2022-08-11T13:55:03.190Z,1023.41
2022-08-11T14:00:05.576Z,1023.41
2022-08-11T14:05:03.227Z,1023.42
2022-08-11T14:10:04.560Z,1023.41
2022-08-11T14:15:08.033Z,1023.37
2022-08-11T14:20:14.098Z,1023.34
2022-08-11T14:25:03.385Z,1023.3
2022-08-11T14:30:05.426Z,1023.3
2022-08-11T14:35:03.210Z,1023.29
2022-08-11T14:40:04.492Z,1023.33
2022-08-11T14:45:03.140Z,1023.31
2022-08-11T14:50:09.689Z,1023.28
2022-08-11T14:55:03.294Z,1023.19
2022-08-11T15:00:05.077Z,1023.13
2022-08-11T15:05:03.256Z,1023.08
2022-08-11T15:10:19.597Z,1023.03
2022-08-11T15:15:03.325Z,1022.95
2022-08-11T15:20:04.249Z,1022.9
2022-08-11T15:25:03.191Z,1022.87
2022-08-11T15:30:05.119Z,1022.84
2022-08-11T15:35:03.908Z,1022.79
2022-08-11T15:40:04.494Z,1022.8
2022-08-11T15:45:04.202Z,1022.78
2022-08-11T15:50:10.054Z,1022.79
2022-08-11T15:55:03.214Z,1022.77
2022-08-11T16:00:05.432Z,1022.76
2022-08-11T16:05:04.384Z,1022.66
2022-08-11T16:10:04.339Z,1022.59
2022-08-11T16:15:03.305Z,1022.44
2022-08-11T16:20:04.246Z,1022.29
2022-08-11T16:25:58.579Z,1022.13
2022-08-11T16:30:05.458Z,1022.07
2022-08-11T16:35:03.223Z,1022.02
2022-08-11T16:40:04.122Z,1021.96
2022-08-11T16:45:04.392Z,1021.84
2022-08-11T16:50:04.161Z,1021.71
2022-08-11T16:55:03.192Z,1021.66
2022-08-11T17:00:06.684Z,1021.61
2022-08-11T17:05:03.219Z,1021.54
2022-08-11T17:10:04.331Z,1021.5
2022-08-11T17:15:03.319Z,1021.44
2022-08-11T17:20:39.262Z,1021.37
2022-08-11T17:25:03.254Z,1021.31
2022-08-11T17:30:04.925Z,1021.23
2022-08-11T17:35:03.291Z,1021.1
2022-08-11T17:40:04.367Z,1021.08
2022-08-11T17:45:03.172Z,1021.01
2022-08-11T17:50:09.099Z,1020.96
2022-08-11T17:55:05.997Z,1020.95
2022-08-11T18:00:05.255Z,1020.92
2022-08-11T18:05:03.215Z,1020.89
2022-08-11T18:10:04.350Z,1020.92
2022-08-11T18:15:03.369Z,1020.86
2022-08-11T18:20:04.474Z,1020.79
2022-08-11T18:25:03.181Z,1020.73
2022-08-11T18:30:04.868Z,1020.66
2022-08-11T18:35:03.287Z,1020.68
2022-08-11T18:40:04.365Z,1020.63
2022-08-11T18:45:03.309Z,1020.56
2022-08-11T18:50:05.515Z,1020.67
2022-08-11T18:55:03.445Z,1020.66
2022-08-11T19:00:06.112Z,1020.67
2022-08-11T19:05:03.415Z,1020.65
2022-08-11T19:10:04.423Z,1020.57
2022-08-11T19:15:03.344Z,1020.55
2022-08-11T19:20:04.399Z,1020.41
2022-08-11T19:25:03.130Z,1020.44
2022-08-11T19:30:12.809Z,1020.4
2022-08-11T19:35:03.362Z,1020.34
2022-08-11T19:40:04.326Z,1020.22
2022-08-11T19:45:03.360Z,1020.25
2022-08-11T19:50:04.465Z,1020.25
2022-08-11T19:55:03.498Z,1020.34
2022-08-11T20:00:10.544Z,1020.35
2022-08-11T20:05:03.324Z,1020.35
2022-08-11T20:10:06.628Z,1020.32
2022-08-11T20:15:03.314Z,1020.21
2022-08-11T20:20:04.465Z,1020.24
2022-08-11T20:25:03.406Z,1020.22
2022-08-11T20:30:05.045Z,1020.31
2022-08-11T20:35:03.461Z,1020.37
2022-08-11T20:40:04.316Z,1020.39
2022-08-11T20:45:03.295Z,1020.41
2022-08-11T20:50:04.437Z,1020.4
2022-08-11T20:55:03.452Z,1020.46
2022-08-11T21:00:04.648Z,1020.51
2022-08-11T21:05:03.342Z,1020.55
2022-08-11T21:10:10.357Z,1020.54
2022-08-11T21:15:04.588Z,1020.54
2022-08-11T21:20:07.071Z,1020.58
2022-08-11T21:25:03.419Z,1020.61
2022-08-11T21:30:04.648Z,1020.58
2022-08-11T21:35:03.191Z,1020.65
2022-08-11T21:40:04.350Z,1020.67
2022-08-11T21:45:03.298Z,1020.73
2022-08-11T21:50:04.513Z,1020.81
2022-08-11T21:55:03.438Z,1020.92
2022-08-11T22:00:05.975Z,1020.85
2022-08-11T22:05:03.540Z,1020.82
2022-08-11T22:10:27.478Z,1020.91
2022-08-11T22:15:03.323Z,1020.9
2022-08-11T22:20:04.396Z,1020.83
2022-08-11T22:25:03.800Z,1020.85
2022-08-11T22:30:06.113Z,1020.99
2022-08-11T22:35:03.232Z,1021.02
2022-08-11T22:40:04.370Z,1021.05
2022-08-11T22:45:03.464Z,1021.03
2022-08-11T22:50:04.394Z,1021.08
2022-08-11T22:55:03.462Z,1021.11
2022-08-11T23:00:06.173Z,1021.15
2022-08-11T23:05:03.594Z,1021.23
2022-08-11T23:10:05.467Z,1021.3
2022-08-11T23:15:03.266Z,1021.32
2022-08-11T23:20:07.369Z,1021.34
2022-08-11T23:25:03.330Z,1021.34
2022-08-11T23:30:04.512Z,1021.32
2022-08-11T23:35:37.459Z,1021.33
2022-08-11T23:40:05.075Z,1021.38
2022-08-11T23:45:03.228Z,1021.57
2022-08-11T23:50:04.443Z,1021.65
2022-08-11T23:55:03.327Z,1021.65
